createdAt,value
2017-12-29T00:00:04.212Z,939.53
2017-12-29T00:01:04.192Z,939.55
2017-12-29T00:02:57.079Z,939.57
2017-12-29T00:03:57.040Z,939.57
2017-12-29T00:05:49.951Z,939.62
2017-12-29T00:06:49.924Z,939.63
2017-12-29T00:08:42.858Z,939.67
2017-12-29T00:09:42.794Z,939.71
2017-12-29T00:11:35.721Z,939.70
2017-12-29T00:12:35.693Z,939.70
2017-12-29T00:14:28.641Z,939.75
2017-12-29T00:15:28.609Z,939.78
2017-12-29T00:17:21.534Z,939.81
2017-12-29T00:18:21.508Z,939.88
2017-12-29T00:20:14.439Z,939.89
2017-12-29T00:21:14.384Z,939.87
2017-12-29T00:23:07.209Z,939.83
2017-12-29T00:24:07.186Z,939.89
2017-12-29T00:26:00.192Z,939.89
2017-12-29T00:27:00.156Z,939.90
2017-12-29T00:28:53.177Z,939.90
2017-12-29T00:29:53.136Z,939.90
2017-12-29T00:31:46.196Z,939.94
2017-12-29T00:32:46.169Z,939.99
2017-12-29T00:34:39.171Z,940.00
2017-12-29T00:35:39.146Z,940.04
2017-12-29T00:37:32.114Z,940.05
2017-12-29T00:38:32.088Z,940.07
2017-12-29T00:40:25.046Z,940.09
2017-12-29T00:41:24.979Z,940.06
2017-12-29T00:43:17.903Z,940.08
2017-12-29T00:44:17.878Z,940.06
2017-12-29T00:46:10.818Z,940.02
2017-12-29T00:47:10.777Z,940.03
2017-12-29T00:49:03.716Z,940.06
2017-12-29T00:50:03.697Z,940.07
2017-12-29T00:51:56.694Z,940.07
2017-12-29T00:52:56.661Z,940.04
2017-12-29T00:54:49.687Z,940.08
2017-12-29T00:55:49.629Z,940.13
2017-12-29T00:57:42.588Z,940.14
2017-12-29T00:58:42.548Z,940.18
2017-12-29T01:00:35.435Z,940.22
2017-12-29T01:01:35.413Z,940.24
2017-12-29T01:03:28.278Z,940.24
2017-12-29T01:04:28.248Z,940.24
2017-12-29T01:06:21.232Z,940.30
2017-12-29T01:07:21.173Z,940.32
2017-12-29T01:09:14.088Z,940.38
2017-12-29T01:10:14.059Z,940.37
2017-12-29T01:12:06.956Z,940.42
2017-12-29T01:13:06.923Z,940.48
2017-12-29T01:14:59.872Z,940.49
2017-12-29T01:15:59.846Z,940.48
2017-12-29T01:17:52.773Z,940.50
2017-12-29T01:18:52.832Z,940.43
2017-12-29T01:20:45.619Z,940.52
2017-12-29T01:21:45.589Z,940.52
2017-12-29T01:23:38.503Z,940.50
2017-12-29T01:24:38.468Z,940.53
2017-12-29T01:26:31.406Z,940.50
2017-12-29T01:27:31.379Z,940.51
2017-12-29T01:29:24.314Z,940.61
2017-12-29T01:30:24.275Z,940.60
2017-12-29T01:32:17.200Z,940.64
2017-12-29T01:33:17.177Z,940.63
2017-12-29T01:35:10.124Z,940.66
2017-12-29T01:36:10.089Z,940.70
2017-12-29T01:38:03.063Z,940.69
2017-12-29T01:39:02.986Z,940.69
2017-12-29T01:40:55.852Z,940.73
2017-12-29T01:41:55.820Z,940.75
2017-12-29T01:43:48.739Z,940.72
2017-12-29T01:44:48.710Z,940.71
2017-12-29T01:46:41.689Z,940.71
2017-12-29T01:47:41.685Z,940.75
2017-12-29T01:49:34.648Z,940.73
2017-12-29T01:50:34.597Z,940.77
2017-12-29T01:52:27.481Z,940.84
2017-12-29T01:53:27.439Z,940.86
2017-12-29T01:55:20.343Z,940.88
2017-12-29T01:56:20.308Z,940.85
2017-12-29T01:58:13.249Z,940.86
2017-12-29T01:59:13.214Z,940.90
2017-12-29T02:01:06.153Z,940.92
2017-12-29T02:02:06.103Z,940.90
2017-12-29T02:03:59.498Z,940.92
2017-12-29T02:04:59.474Z,940.94
2017-12-29T02:06:52.407Z,940.93
2017-12-29T02:07:52.369Z,940.95
2017-12-29T02:09:45.253Z,940.95
2017-12-29T02:10:45.223Z,940.93
2017-12-29T02:12:38.158Z,940.92
2017-12-29T02:13:38.116Z,940.89
2017-12-29T02:15:30.997Z,940.89
2017-12-29T02:16:30.973Z,940.88
2017-12-29T02:18:23.903Z,940.88
2017-12-29T02:19:23.871Z,940.85
2017-12-29T02:21:16.841Z,940.85
2017-12-29T02:22:16.819Z,940.85
2017-12-29T02:24:09.722Z,940.86
2017-12-29T02:25:09.692Z,940.90
2017-12-29T02:27:02.694Z,940.88
2017-12-29T02:28:02.653Z,940.90
2017-12-29T02:29:55.673Z,940.95
2017-12-29T02:30:55.639Z,940.92
2017-12-29T02:32:48.701Z,940.93
2017-12-29T02:33:48.651Z,940.92
2017-12-29T02:35:41.536Z,940.94
2017-12-29T02:36:41.513Z,940.98
2017-12-29T02:38:34.402Z,940.94
2017-12-29T02:39:34.370Z,940.96
2017-12-29T02:41:27.323Z,941.03
2017-12-29T02:42:27.264Z,941.06
2017-12-29T02:44:20.190Z,941.09
2017-12-29T02:45:20.157Z,941.09
2017-12-29T02:47:13.096Z,941.10
2017-12-29T02:48:13.055Z,941.10
2017-12-29T02:50:05.996Z,941.12
2017-12-29T02:51:05.965Z,941.14
2017-12-29T02:52:58.843Z,941.15
2017-12-29T02:53:58.821Z,941.14
2017-12-29T02:55:51.805Z,941.15
2017-12-29T02:56:51.773Z,941.20
2017-12-29T02:58:45.200Z,941.15
2017-12-29T02:59:44.712Z,941.17
2017-12-29T03:01:37.681Z,941.17
2017-12-29T03:02:37.645Z,941.17
2017-12-29T03:04:30.623Z,941.19
2017-12-29T03:05:30.587Z,941.22
2017-12-29T03:07:23.500Z,941.20
2017-12-29T03:08:23.469Z,941.26
2017-12-29T03:10:16.355Z,941.31
2017-12-29T03:11:16.318Z,941.29
2017-12-29T03:13:09.200Z,941.29
2017-12-29T03:14:09.170Z,941.22
2017-12-29T03:16:02.073Z,941.23
2017-12-29T03:17:02.038Z,941.26
2017-12-29T03:18:54.954Z,941.25
2017-12-29T03:19:54.909Z,941.25
2017-12-29T03:21:47.830Z,941.27
2017-12-29T03:22:47.800Z,941.24
2017-12-29T03:24:40.684Z,941.27
2017-12-29T03:25:40.655Z,941.22
2017-12-29T03:27:33.585Z,941.22
2017-12-29T03:28:33.549Z,941.25
2017-12-29T03:30:26.466Z,941.25
2017-12-29T03:31:26.429Z,941.28
2017-12-29T03:33:19.360Z,941.23
2017-12-29T03:34:19.331Z,941.25
2017-12-29T03:36:12.237Z,941.24
2017-12-29T03:37:12.206Z,941.27
2017-12-29T03:39:05.112Z,941.24
2017-12-29T03:40:05.073Z,941.29
2017-12-29T03:41:57.983Z,941.25
2017-12-29T03:42:57.954Z,941.26
2017-12-29T03:44:50.852Z,941.26
2017-12-29T03:45:50.821Z,941.20
2017-12-29T03:47:43.770Z,941.22
2017-12-29T03:48:43.739Z,941.18
2017-12-29T03:50:36.660Z,941.19
2017-12-29T03:51:36.642Z,941.18
2017-12-29T03:53:29.512Z,941.12
2017-12-29T03:54:29.480Z,941.14
2017-12-29T03:56:22.447Z,941.16
2017-12-29T03:57:22.411Z,941.13
2017-12-29T03:59:15.360Z,941.16
2017-12-29T04:00:15.334Z,941.14
2017-12-29T04:02:08.422Z,941.16
2017-12-29T04:03:08.381Z,941.17
2017-12-29T04:05:01.444Z,941.15
2017-12-29T04:06:01.381Z,941.22
2017-12-29T04:07:54.286Z,941.18
2017-12-29T04:08:54.261Z,941.19
2017-12-29T04:10:47.150Z,941.20
2017-12-29T04:11:47.109Z,941.21
2017-12-29T04:13:40.184Z,941.21
2017-12-29T04:14:39.985Z,941.21
2017-12-29T04:16:32.952Z,941.23
2017-12-29T04:17:32.920Z,941.24
2017-12-29T04:19:25.876Z,941.22
2017-12-29T04:20:25.847Z,941.20
2017-12-29T04:22:18.799Z,941.22
2017-12-29T04:23:18.765Z,941.21
2017-12-29T04:25:11.670Z,941.20
2017-12-29T04:26:11.653Z,941.21
2017-12-29T04:28:05.038Z,941.25
2017-12-29T04:29:05.003Z,941.32
2017-12-29T04:30:57.886Z,941.29
2017-12-29T04:31:57.986Z,941.32
2017-12-29T04:33:50.901Z,941.27
2017-12-29T04:34:50.865Z,941.33
2017-12-29T04:36:43.792Z,941.33
2017-12-29T04:37:43.766Z,941.30
2017-12-29T04:39:36.661Z,941.32
2017-12-29T04:40:36.618Z,941.31
2017-12-29T04:42:29.505Z,941.36
2017-12-29T04:43:29.570Z,941.33
2017-12-29T04:45:22.407Z,941.31
2017-12-29T04:46:22.376Z,941.33
2017-12-29T04:48:15.373Z,941.31
2017-12-29T04:49:15.345Z,941.36
2017-12-29T04:51:08.438Z,941.36
2017-12-29T04:52:08.379Z,941.31
2017-12-29T04:54:01.835Z,941.31
2017-12-29T04:55:01.809Z,941.25
2017-12-29T04:56:54.684Z,941.32
2017-12-29T04:57:54.650Z,941.33
2017-12-29T04:59:47.706Z,941.37
2017-12-29T05:00:47.640Z,941.34
2017-12-29T05:02:40.637Z,941.41
2017-12-29T05:03:40.605Z,941.38
2017-12-29T05:05:33.592Z,941.34
2017-12-29T05:06:33.553Z,941.34
2017-12-29T05:08:27.499Z,941.32
2017-12-29T05:09:26.518Z,941.33
2017-12-29T05:11:19.529Z,941.32
2017-12-29T05:12:19.490Z,941.28
2017-12-29T05:14:12.357Z,941.32
2017-12-29T05:15:12.332Z,941.33
2017-12-29T05:17:05.324Z,941.35
2017-12-29T05:18:05.288Z,941.32
2017-12-29T05:19:58.204Z,941.32
2017-12-29T05:20:58.177Z,941.31
2017-12-29T05:22:51.129Z,941.28
2017-12-29T05:23:51.093Z,941.28
2017-12-29T05:25:44.097Z,941.23
2017-12-29T05:26:44.065Z,941.28
2017-12-29T05:28:37.079Z,941.33
2017-12-29T05:29:37.041Z,941.31
2017-12-29T05:31:29.924Z,941.35
2017-12-29T05:32:29.896Z,941.33
2017-12-29T05:34:22.887Z,941.36
2017-12-29T05:35:22.844Z,941.38
2017-12-29T05:37:16.759Z,941.36
2017-12-29T05:38:16.731Z,941.41
2017-12-29T05:40:09.606Z,941.45
2017-12-29T05:41:09.569Z,941.51
2017-12-29T05:43:02.466Z,941.53
2017-12-29T05:44:02.425Z,941.50
2017-12-29T05:45:55.322Z,941.52
2017-12-29T05:46:55.279Z,941.53
2017-12-29T05:48:48.218Z,941.51
2017-12-29T05:49:48.131Z,941.50
2017-12-29T05:51:41.018Z,941.52
2017-12-29T05:52:40.979Z,941.48
2017-12-29T05:54:33.868Z,941.47
2017-12-29T05:55:33.846Z,941.51
2017-12-29T05:57:26.741Z,941.46
2017-12-29T05:58:26.718Z,941.47
2017-12-29T06:00:20.079Z,941.40
2017-12-29T06:01:20.049Z,941.44
2017-12-29T06:03:12.959Z,941.40
2017-12-29T06:04:12.890Z,941.37
2017-12-29T06:06:05.893Z,941.40
2017-12-29T06:07:05.862Z,941.35
2017-12-29T06:08:58.848Z,941.35
2017-12-29T06:09:58.812Z,941.31
2017-12-29T06:11:51.721Z,941.34
2017-12-29T06:12:51.686Z,941.35
2017-12-29T06:14:44.603Z,941.29
2017-12-29T06:15:44.578Z,941.31
2017-12-29T06:17:37.467Z,941.30
2017-12-29T06:18:37.428Z,941.28
2017-12-29T06:20:30.409Z,941.32
2017-12-29T06:21:30.384Z,941.30
2017-12-29T06:23:23.378Z,941.35
2017-12-29T06:24:23.351Z,941.38
2017-12-29T06:26:16.352Z,941.41
2017-12-29T06:27:16.319Z,941.42
2017-12-29T06:29:09.217Z,941.46
2017-12-29T06:30:09.223Z,941.43
2017-12-29T06:32:02.183Z,941.42
2017-12-29T06:33:02.129Z,941.40
2017-12-29T06:34:55.345Z,941.41
2017-12-29T06:35:55.303Z,941.46
2017-12-29T06:37:48.232Z,941.40
2017-12-29T06:38:48.303Z,941.45
2017-12-29T06:40:41.200Z,941.51
2017-12-29T06:41:41.173Z,941.43
2017-12-29T06:43:34.121Z,941.44
2017-12-29T06:44:34.093Z,941.43
2017-12-29T06:46:27.003Z,941.43
2017-12-29T06:47:26.969Z,941.41
2017-12-29T06:49:19.977Z,941.35
2017-12-29T06:50:19.825Z,941.32
2017-12-29T06:52:12.751Z,941.33
2017-12-29T06:53:12.704Z,941.33
2017-12-29T06:55:05.655Z,941.33
2017-12-29T06:56:05.629Z,941.36
2017-12-29T06:57:58.572Z,941.37
2017-12-29T06:58:58.538Z,941.31
2017-12-29T07:00:51.440Z,941.34
2017-12-29T07:01:51.407Z,941.32
2017-12-29T07:03:44.405Z,941.28
2017-12-29T07:04:44.372Z,941.26
2017-12-29T07:06:37.366Z,941.25
2017-12-29T07:07:37.338Z,941.26
2017-12-29T07:09:30.227Z,941.32
2017-12-29T07:10:30.198Z,941.33
2017-12-29T07:12:23.183Z,941.35
2017-12-29T07:13:23.167Z,941.37
2017-12-29T07:15:16.136Z,941.34
2017-12-29T07:16:16.106Z,941.38
2017-12-29T07:18:08.987Z,941.34
2017-12-29T07:19:08.952Z,941.36
2017-12-29T07:21:01.890Z,941.35
2017-12-29T07:22:01.800Z,941.38
2017-12-29T07:23:54.690Z,941.40
2017-12-29T07:24:54.670Z,941.39
2017-12-29T07:26:47.606Z,941.38
2017-12-29T07:27:47.581Z,941.41
2017-12-29T07:29:40.493Z,941.51
2017-12-29T07:30:40.467Z,941.47
2017-12-29T07:32:33.454Z,941.44
2017-12-29T07:33:33.415Z,941.41
2017-12-29T07:35:26.298Z,941.42
2017-12-29T07:36:26.275Z,941.46
2017-12-29T07:38:19.170Z,941.51
2017-12-29T07:39:19.128Z,941.51
2017-12-29T07:41:12.007Z,941.53
2017-12-29T07:42:11.980Z,941.53
2017-12-29T07:44:04.906Z,941.59
2017-12-29T07:45:04.869Z,941.58
2017-12-29T07:46:57.752Z,941.61
2017-12-29T07:47:57.723Z,941.58
2017-12-29T07:49:50.670Z,941.64
2017-12-29T07:50:50.628Z,941.64
2017-12-29T07:52:43.544Z,941.68
2017-12-29T07:53:43.522Z,941.70
2017-12-29T07:55:36.477Z,941.69
2017-12-29T07:56:36.444Z,941.70
2017-12-29T07:58:29.449Z,941.66
2017-12-29T07:59:29.420Z,941.65
2017-12-29T08:01:22.315Z,941.63
2017-12-29T08:02:22.272Z,941.66
2017-12-29T08:04:15.229Z,941.60
2017-12-29T08:05:15.200Z,941.61
2017-12-29T08:07:08.084Z,941.62
2017-12-29T08:08:08.056Z,941.58
2017-12-29T08:10:01.082Z,941.61
2017-12-29T08:11:01.060Z,941.65
2017-12-29T08:12:54.102Z,941.63
2017-12-29T08:13:54.071Z,941.57
2017-12-29T08:15:47.035Z,941.54
2017-12-29T08:16:47.101Z,941.54
2017-12-29T08:18:39.986Z,941.53
2017-12-29T08:19:39.956Z,941.51
2017-12-29T08:21:32.855Z,941.49
2017-12-29T08:22:32.825Z,941.49
2017-12-29T08:24:25.706Z,941.48
2017-12-29T08:25:25.680Z,941.51
2017-12-29T08:27:18.555Z,941.46
2017-12-29T08:28:18.539Z,941.47
2017-12-29T08:30:11.421Z,941.46
2017-12-29T08:31:11.380Z,941.47
2017-12-29T08:33:04.263Z,941.42
2017-12-29T08:34:04.232Z,941.43
2017-12-29T08:35:57.135Z,941.41
2017-12-29T08:36:57.100Z,941.36
2017-12-29T08:38:49.966Z,941.37
2017-12-29T08:39:49.946Z,941.34
2017-12-29T08:41:42.829Z,941.42
2017-12-29T08:42:42.794Z,941.43
2017-12-29T08:44:35.668Z,941.45
2017-12-29T08:45:35.645Z,941.47
2017-12-29T08:47:28.530Z,941.48
2017-12-29T08:48:28.490Z,941.53
2017-12-29T08:50:21.374Z,941.56
2017-12-29T08:51:21.346Z,941.60
2017-12-29T08:53:14.220Z,941.57
2017-12-29T08:54:14.193Z,941.56
2017-12-29T08:56:07.079Z,941.59
2017-12-29T08:57:07.053Z,941.58
2017-12-29T08:58:59.954Z,941.52
2017-12-29T08:59:59.905Z,941.54
2017-12-29T09:01:52.779Z,941.53
2017-12-29T09:02:52.752Z,941.54
2017-12-29T09:04:45.650Z,941.48
2017-12-29T09:05:45.607Z,941.53
2017-12-29T09:07:38.586Z,941.54
2017-12-29T09:08:38.557Z,941.56
2017-12-29T09:10:31.449Z,941.63
2017-12-29T09:11:31.412Z,941.61
2017-12-29T09:13:24.392Z,941.61
2017-12-29T09:14:24.363Z,941.58
2017-12-29T09:16:17.305Z,941.61
2017-12-29T09:17:17.270Z,941.62
2017-12-29T09:19:10.179Z,941.70
2017-12-29T09:20:10.154Z,941.68
2017-12-29T09:22:03.094Z,941.70
2017-12-29T09:23:03.060Z,941.71
2017-12-29T09:24:55.964Z,941.71
2017-12-29T09:25:55.933Z,941.70
2017-12-29T09:27:48.870Z,941.71
2017-12-29T09:28:48.837Z,941.69
2017-12-29T09:30:41.813Z,941.70
2017-12-29T09:31:41.790Z,941.67
2017-12-29T09:33:34.763Z,941.66
2017-12-29T09:34:34.767Z,941.63
2017-12-29T09:36:27.650Z,941.58
2017-12-29T09:37:27.631Z,941.61
2017-12-29T09:39:20.569Z,941.62
2017-12-29T09:40:20.526Z,941.64
2017-12-29T09:42:13.635Z,941.70
2017-12-29T09:43:13.561Z,941.65
2017-12-29T09:45:06.489Z,941.64
2017-12-29T09:46:06.452Z,941.58
2017-12-29T09:47:59.420Z,941.61
2017-12-29T09:48:59.381Z,941.58
2017-12-29T09:50:52.317Z,941.54
2017-12-29T09:51:52.277Z,941.52
2017-12-29T09:53:45.196Z,941.50
2017-12-29T09:54:45.152Z,941.45
2017-12-29T09:56:38.096Z,941.46
2017-12-29T09:57:38.068Z,941.42
2017-12-29T09:59:31.990Z,941.35
2017-12-29T10:00:31.948Z,941.35
2017-12-29T10:01:31.929Z,941.31
2017-12-29T10:02:31.940Z,941.34
2017-12-29T10:03:31.893Z,941.27
2017-12-29T10:04:31.881Z,941.24
2017-12-29T10:05:31.869Z,941.17
2017-12-29T10:06:31.850Z,941.18
2017-12-29T10:07:31.832Z,941.15
2017-12-29T10:08:31.820Z,941.15
2017-12-29T10:09:31.804Z,941.10
2017-12-29T10:10:31.788Z,941.06
2017-12-29T10:11:31.769Z,941.01
2017-12-29T10:12:31.758Z,940.99
2017-12-29T10:13:31.742Z,940.96
2017-12-29T10:14:31.727Z,940.95
2017-12-29T10:15:31.715Z,940.88
2017-12-29T10:16:31.690Z,940.87
2017-12-29T10:17:31.675Z,940.90
2017-12-29T10:18:31.666Z,940.85
2017-12-29T10:19:31.643Z,940.83
2017-12-29T10:20:31.629Z,940.82
2017-12-29T10:21:31.610Z,940.80
2017-12-29T10:22:31.596Z,940.77
2017-12-29T10:23:31.581Z,940.76
2017-12-29T10:24:31.606Z,940.72
2017-12-29T10:25:31.551Z,940.76
2017-12-29T10:26:31.528Z,940.68
2017-12-29T10:27:31.513Z,940.65
2017-12-29T10:28:31.500Z,940.65
2017-12-29T10:29:31.480Z,940.62
2017-12-29T10:30:31.466Z,940.58
2017-12-29T10:31:31.449Z,940.58
2017-12-29T10:32:31.434Z,940.55
2017-12-29T10:33:31.416Z,940.51
2017-12-29T10:34:31.408Z,940.53
2017-12-29T10:35:31.392Z,940.45
2017-12-29T10:36:31.380Z,940.44
2017-12-29T10:37:31.358Z,940.46
2017-12-29T10:38:31.342Z,940.47
2017-12-29T10:39:31.324Z,940.49
2017-12-29T10:40:31.305Z,940.46
2017-12-29T10:41:31.282Z,940.50
2017-12-29T10:42:31.274Z,940.49
2017-12-29T10:43:31.261Z,940.46
2017-12-29T10:44:31.238Z,940.41
2017-12-29T10:45:31.233Z,940.43
2017-12-29T10:46:31.204Z,940.42
2017-12-29T10:47:31.191Z,940.41
2017-12-29T10:48:31.175Z,940.41
2017-12-29T10:49:31.154Z,940.40
2017-12-29T10:50:31.142Z,940.36
2017-12-29T10:51:31.125Z,940.35
2017-12-29T10:52:31.103Z,940.35
2017-12-29T10:53:31.091Z,940.36
2017-12-29T10:54:31.084Z,940.34
2017-12-29T10:55:31.060Z,940.38
2017-12-29T10:56:31.041Z,940.40
2017-12-29T10:57:31.033Z,940.39
2017-12-29T10:58:31.008Z,940.40
2017-12-29T10:59:30.993Z,940.38
2017-12-29T11:00:30.975Z,940.35
2017-12-29T11:01:30.961Z,940.38
2017-12-29T11:02:30.956Z,940.38
2017-12-29T11:03:30.929Z,940.35
2017-12-29T11:04:30.910Z,940.35
2017-12-29T11:05:30.893Z,940.35
2017-12-29T11:06:30.882Z,940.30
2017-12-29T11:07:30.888Z,940.30
2017-12-29T11:08:30.850Z,940.29
2017-12-29T11:09:30.829Z,940.33
2017-12-29T11:10:30.815Z,940.32
2017-12-29T11:11:30.798Z,940.36
2017-12-29T11:12:30.782Z,940.36
2017-12-29T11:13:30.764Z,940.37
2017-12-29T11:14:30.757Z,940.35
2017-12-29T11:15:30.733Z,940.31
2017-12-29T11:16:30.724Z,940.32
2017-12-29T11:17:30.703Z,940.34
2017-12-29T11:18:30.683Z,940.29
2017-12-29T11:19:30.671Z,940.33
2017-12-29T11:20:30.655Z,940.33
2017-12-29T11:21:30.643Z,940.31
2017-12-29T11:22:30.622Z,940.34
2017-12-29T11:23:30.610Z,940.30
2017-12-29T11:24:30.604Z,940.28
2017-12-29T11:25:30.578Z,940.29
2017-12-29T11:26:30.560Z,940.29
2017-12-29T11:27:30.544Z,940.27
2017-12-29T11:28:30.528Z,940.26
2017-12-29T11:29:30.510Z,940.27
2017-12-29T11:30:30.496Z,940.23
2017-12-29T11:31:30.482Z,940.23
2017-12-29T11:32:30.468Z,940.22
2017-12-29T11:33:30.452Z,940.24
2017-12-29T11:34:30.433Z,940.24
2017-12-29T11:35:30.419Z,940.21
2017-12-29T11:36:30.429Z,940.26
2017-12-29T11:37:30.422Z,940.22
2017-12-29T11:38:30.372Z,940.23
2017-12-29T11:39:30.353Z,940.18
2017-12-29T11:40:30.338Z,940.19
2017-12-29T11:41:30.333Z,940.23
2017-12-29T11:42:30.312Z,940.20
2017-12-29T11:43:30.307Z,940.20
2017-12-29T11:44:30.286Z,940.16
2017-12-29T11:45:30.274Z,940.18
2017-12-29T11:46:30.242Z,940.16
2017-12-29T11:47:30.255Z,940.17
2017-12-29T11:48:30.225Z,940.15
2017-12-29T11:49:30.217Z,940.19
2017-12-29T11:50:30.185Z,940.14
2017-12-29T11:51:30.174Z,940.16
2017-12-29T11:52:30.169Z,940.14
2017-12-29T11:53:30.138Z,940.15
2017-12-29T11:54:30.128Z,940.20
2017-12-29T11:55:30.116Z,940.19
2017-12-29T11:56:30.124Z,940.17
2017-12-29T11:57:30.081Z,940.16
2017-12-29T11:58:30.067Z,940.11
2017-12-29T11:59:30.054Z,940.12
2017-12-29T12:00:30.037Z,940.12
2017-12-29T12:01:30.941Z,940.06
2017-12-29T12:02:30.006Z,940.02
2017-12-29T12:03:29.989Z,940.00
2017-12-29T12:04:29.971Z,940.03
2017-12-29T12:05:29.955Z,939.99
2017-12-29T12:06:29.940Z,939.91
2017-12-29T12:07:29.928Z,939.92
2017-12-29T12:08:29.926Z,939.89
2017-12-29T12:09:29.901Z,939.89
2017-12-29T12:10:29.886Z,939.91
2017-12-29T12:11:29.870Z,939.89
2017-12-29T12:12:29.855Z,939.90
2017-12-29T12:13:29.843Z,939.86
2017-12-29T12:14:29.821Z,939.89
2017-12-29T12:15:29.816Z,939.85
2017-12-29T12:16:29.805Z,939.85
2017-12-29T12:17:29.776Z,939.86
2017-12-29T12:18:29.766Z,939.84
2017-12-29T12:19:29.748Z,939.85
2017-12-29T12:20:29.730Z,939.84
2017-12-29T12:21:29.714Z,939.86
2017-12-29T12:22:29.701Z,939.82
2017-12-29T12:23:29.684Z,939.76
2017-12-29T12:24:29.676Z,939.78
2017-12-29T12:25:29.656Z,939.75
2017-12-29T12:26:29.640Z,939.70
2017-12-29T12:27:29.628Z,939.70
2017-12-29T12:28:29.611Z,939.67
2017-12-29T12:29:29.599Z,939.67
2017-12-29T12:30:29.579Z,939.65
2017-12-29T12:31:29.564Z,939.58
2017-12-29T12:32:29.549Z,939.49
2017-12-29T12:33:29.535Z,939.44
2017-12-29T12:34:29.521Z,939.45
2017-12-29T12:35:29.504Z,939.48
2017-12-29T12:36:29.489Z,939.44
2017-12-29T12:37:29.473Z,939.44
2017-12-29T12:38:29.458Z,939.44
2017-12-29T12:39:29.447Z,939.48
2017-12-29T12:40:29.431Z,939.41
2017-12-29T12:41:29.418Z,939.41
2017-12-29T12:42:29.402Z,939.43
2017-12-29T12:43:29.384Z,939.42
2017-12-29T12:44:29.378Z,939.37
2017-12-29T12:45:29.361Z,939.39
2017-12-29T12:46:29.344Z,939.41
2017-12-29T12:47:29.338Z,939.40
2017-12-29T12:48:29.312Z,939.34
2017-12-29T12:49:29.304Z,939.27
2017-12-29T12:50:29.284Z,939.26
2017-12-29T12:51:29.267Z,939.21
2017-12-29T12:52:29.249Z,939.20
2017-12-29T12:53:29.235Z,939.21
2017-12-29T12:54:29.226Z,939.18
2017-12-29T12:55:29.207Z,939.18
2017-12-29T12:56:29.197Z,939.19
2017-12-29T12:57:29.179Z,939.17
2017-12-29T12:58:29.160Z,939.23
2017-12-29T12:59:29.163Z,939.27
2017-12-29T13:00:29.153Z,939.23
2017-12-29T13:01:29.152Z,939.21
2017-12-29T13:02:29.098Z,939.20
2017-12-29T13:03:29.082Z,939.17
2017-12-29T13:04:29.073Z,939.16
2017-12-29T13:05:29.053Z,939.12
2017-12-29T13:06:29.042Z,939.11
2017-12-29T13:07:29.029Z,939.06
2017-12-29T13:08:29.012Z,939.07
2017-12-29T13:09:28.995Z,938.98
2017-12-29T13:10:28.984Z,938.95
2017-12-29T13:11:28.969Z,938.92
2017-12-29T13:12:28.952Z,938.86
2017-12-29T13:13:28.938Z,938.83
2017-12-29T13:14:28.997Z,938.78
2017-12-29T13:15:28.911Z,938.73
2017-12-29T13:16:28.899Z,938.68
2017-12-29T13:17:28.878Z,938.69
2017-12-29T13:18:28.904Z,938.69
2017-12-29T13:19:28.845Z,938.67
2017-12-29T13:20:28.834Z,938.70
2017-12-29T13:21:28.815Z,938.75
2017-12-29T13:22:28.846Z,938.76
2017-12-29T13:23:28.791Z,938.79
2017-12-29T13:24:28.776Z,938.79
2017-12-29T13:25:28.759Z,938.76
2017-12-29T13:26:28.745Z,938.72
2017-12-29T13:27:28.727Z,938.70
2017-12-29T13:28:28.722Z,938.69
2017-12-29T13:29:28.696Z,938.67
2017-12-29T13:30:28.682Z,938.63
2017-12-29T13:31:28.669Z,938.63
2017-12-29T13:32:28.679Z,938.56
2017-12-29T13:33:28.640Z,938.54
2017-12-29T13:34:28.667Z,938.56
2017-12-29T13:35:28.605Z,938.52
2017-12-29T13:36:28.592Z,938.55
2017-12-29T13:37:28.576Z,938.55
2017-12-29T13:38:28.562Z,938.51
2017-12-29T13:39:28.545Z,938.53
2017-12-29T13:40:28.552Z,938.52
2017-12-29T13:41:28.525Z,938.56
2017-12-29T13:42:28.498Z,938.55
2017-12-29T13:43:28.487Z,938.52
2017-12-29T13:44:28.468Z,938.48
2017-12-29T13:45:28.453Z,938.45
2017-12-29T13:46:28.437Z,938.41
2017-12-29T13:47:28.424Z,938.39
2017-12-29T13:48:28.433Z,938.34
2017-12-29T13:49:28.391Z,938.36
2017-12-29T13:50:28.382Z,938.38
2017-12-29T13:51:28.364Z,938.41
2017-12-29T13:52:28.344Z,938.42
2017-12-29T13:53:28.330Z,938.44
2017-12-29T13:54:28.314Z,938.44
2017-12-29T13:55:28.302Z,938.48
2017-12-29T13:56:28.287Z,938.46
2017-12-29T13:57:28.269Z,938.46
2017-12-29T13:58:28.252Z,938.45
2017-12-29T13:59:28.236Z,938.42
2017-12-29T14:00:28.224Z,938.37
2017-12-29T14:01:28.203Z,938.34
2017-12-29T14:02:28.190Z,938.33
2017-12-29T14:03:28.174Z,938.35
2017-12-29T14:04:28.159Z,938.30
2017-12-29T14:05:28.142Z,938.35
2017-12-29T14:06:28.127Z,938.30
2017-12-29T14:07:28.112Z,938.33
2017-12-29T14:08:28.095Z,938.35
2017-12-29T14:09:28.081Z,938.31
2017-12-29T14:10:28.060Z,938.32
2017-12-29T14:11:28.072Z,938.33
2017-12-29T14:12:28.034Z,938.26
2017-12-29T14:13:28.015Z,938.24
2017-12-29T14:14:27.999Z,938.27
2017-12-29T14:15:28.000Z,938.26
2017-12-29T14:16:27.991Z,938.20
2017-12-29T14:17:27.953Z,938.19
2017-12-29T14:18:27.940Z,938.19
2017-12-29T14:19:27.929Z,938.21
2017-12-29T14:20:27.902Z,938.18
2017-12-29T14:21:27.893Z,938.18
2017-12-29T14:22:27.879Z,938.17
2017-12-29T14:23:27.894Z,938.12
2017-12-29T14:24:27.842Z,938.09
2017-12-29T14:25:27.822Z,938.03
2017-12-29T14:26:27.846Z,938.05
2017-12-29T14:27:27.798Z,938.04
2017-12-29T14:28:27.778Z,938.05
2017-12-29T14:29:27.764Z,938.06
2017-12-29T14:30:27.746Z,938.06
2017-12-29T14:31:27.731Z,938.10
2017-12-29T14:32:27.715Z,938.08
2017-12-29T14:33:27.695Z,938.06
2017-12-29T14:34:27.683Z,938.05
2017-12-29T14:35:27.671Z,938.08
2017-12-29T14:36:27.653Z,938.11
2017-12-29T14:37:27.627Z,938.06
2017-12-29T14:38:27.621Z,938.06
2017-12-29T14:39:27.606Z,938.05
2017-12-29T14:40:27.591Z,938.03
2017-12-29T14:41:27.570Z,938.01
2017-12-29T14:42:27.608Z,937.99
2017-12-29T14:43:27.565Z,938.05
2017-12-29T14:44:27.553Z,937.98
2017-12-29T14:45:27.512Z,938.00
2017-12-29T14:46:27.511Z,937.98
2017-12-29T14:47:27.474Z,937.97
2017-12-29T14:48:27.470Z,937.91
2017-12-29T14:49:27.454Z,937.94
2017-12-29T14:50:27.474Z,937.93
2017-12-29T14:51:27.466Z,937.90
2017-12-29T14:52:27.408Z,937.87
2017-12-29T14:53:27.377Z,937.87
2017-12-29T14:54:27.393Z,937.87
2017-12-29T14:55:27.355Z,937.91
2017-12-29T14:56:27.364Z,937.85
2017-12-29T14:57:27.336Z,937.90
2017-12-29T14:58:27.304Z,937.88
2017-12-29T14:59:27.310Z,937.90
2017-12-29T15:00:27.341Z,937.90
2017-12-29T15:01:27.286Z,937.90
2017-12-29T15:02:27.270Z,937.89
2017-12-29T15:03:27.235Z,937.86
2017-12-29T15:04:27.223Z,937.89
2017-12-29T15:05:27.202Z,937.84
2017-12-29T15:06:27.199Z,937.84
2017-12-29T15:07:27.943Z,937.81
2017-12-29T15:08:27.171Z,937.76
2017-12-29T15:09:27.183Z,937.71
2017-12-29T15:10:27.140Z,937.73
2017-12-29T15:11:27.134Z,937.72
2017-12-29T15:12:27.095Z,937.68
2017-12-29T15:13:27.102Z,937.69
2017-12-29T15:14:27.049Z,937.72
2017-12-29T15:15:27.057Z,937.72
2017-12-29T15:16:27.016Z,937.73
2017-12-29T15:17:27.035Z,937.73
2017-12-29T15:18:27.025Z,937.73
2017-12-29T15:19:26.980Z,937.70
2017-12-29T15:20:27.049Z,937.70
2017-12-29T15:21:26.953Z,937.68
2017-12-29T15:22:26.953Z,937.67
2017-12-29T15:23:26.893Z,937.68
2017-12-29T15:24:26.877Z,937.71
2017-12-29T15:25:26.862Z,937.68
2017-12-29T15:26:26.867Z,937.70
2017-12-29T15:27:26.824Z,937.69
2017-12-29T15:28:26.828Z,937.65
2017-12-29T15:29:26.789Z,937.63
2017-12-29T15:30:26.799Z,937.60
2017-12-29T15:31:26.805Z,937.55